Time;durP1;ratioP1;P1;durP2;ratioP2;P2;SDS_P1;SDS_P2;PMS_P1;PMS_P2;Temp;Humidity;BMP_temperature;BMP_pressure;BME280_temperature;BME280_humidity;BME280_pressure;Samples;Min_cycle;Max_cycle;Signal;HPM_P1;HPM_P2
2022/11/21 00:01:18;;;;;;;1.67;0.60;;;6.20;99.90;;;9.49;54.23;96793.91;5002350;28;20051;-59
2022/11/21 00:03:47;;;;;;;1.17;0.90;;;6.30;99.90;;;9.45;54.24;96788.13;5000922;28;20054;-59
2022/11/21 00:06:16;;;;;;;1.53;0.80;;;6.20;99.90;;;9.46;54.37;96783.66;5005759;28;20046;-59
2022/11/21 00:08:45;;;;;;;1.63;0.80;;;6.20;99.90;;;9.45;54.26;96784.63;5005282;28;20340;-60
2022/11/21 00:11:14;;;;;;;3.13;0.90;;;6.30;99.90;;;9.40;54.66;96771.03;5006445;28;20046;-59
2022/11/21 00:13:43;;;;;;;0.60;0.60;;;6.30;99.90;;;9.31;54.71;96770.28;5004801;28;20050;-59
2022/11/21 00:16:14;;;;;;;1.53;1.20;;;6.30;99.80;;;9.18;55.01;96770.81;5005069;28;20054;-59
2022/11/21 00:18:43;;;;;;;1.70;0.70;;;6.20;99.90;;;9.36;55.02;96764.44;5005103;28;20344;-60
2022/11/21 00:21:15;;;;;;;1.00;0.57;;;6.20;99.90;;;9.29;55.08;96756.34;5006252;28;20049;-59
2022/11/21 00:23:44;;;;;;;2.13;1.83;;;6.10;99.90;;;9.37;55.09;96747.50;5004685;28;20038;-59
2022/11/21 00:26:15;;;;;;;1.47;0.80;;;6.10;99.90;;;9.31;55.18;96750.88;5004896;28;20057;-59
2022/11/21 00:28:44;;;;;;;0.70;0.60;;;6.10;99.90;;;9.27;54.88;96747.72;5005452;28;20056;-60
2022/11/21 00:31:22;;;;;;;0.70;0.50;;;6.00;99.90;;;9.28;55.13;96744.06;5004715;28;20058;-59
2022/11/21 00:33:51;;;;;;;1.33;0.73;;;6.00;99.90;;;9.12;55.59;96742.31;5005486;28;20353;-59
2022/11/21 00:36:19;;;;;;;1.57;0.70;;;6.00;99.90;;;8.85;56.12;96740.94;5005693;28;20245;-60
2022/11/21 00:38:47;;;;;;;0.83;0.57;;;5.90;99.90;;;8.98;55.68;96733.25;5005922;28;20068;-59
2022/11/21 00:41:15;;;;;;;3.27;0.90;;;5.90;99.90;;;9.03;55.25;96733.59;5006077;28;20054;-60
2022/11/21 00:43:43;;;;;;;4.20;0.80;;;5.90;99.90;;;9.02;55.38;96725.78;5004320;28;20060;-60
2022/11/21 00:46:11;;;;;;;1.03;0.70;;;5.90;99.90;;;9.04;55.33;96729.09;5004311;28;20050;-60
2022/11/21 00:48:39;;;;;;;2.23;0.60;;;5.90;99.90;;;9.07;55.09;96718.94;5005856;28;20456;-60
2022/11/21 00:51:07;;;;;;;1.50;0.67;;;6.00;99.90;;;9.09;55.14;96726.72;5005749;28;20046;-60
2022/11/21 00:53:36;;;;;;;3.23;0.80;;;6.00;99.90;;;9.10;54.99;96725.72;5005445;28;20068;-60
2022/11/21 00:56:04;;;;;;;1.10;0.67;;;5.90;99.90;;;9.09;54.88;96721.41;5004213;28;20054;-60
2022/11/21 00:58:32;;;;;;;1.23;0.73;;;6.00;99.90;;;8.97;55.06;96709.53;5004515;28;20065;-60
2022/11/21 01:01:10;;;;;;;1.17;0.80;;;5.90;99.90;;;8.95;55.23;96714.19;5005379;28;20257;-60
2022/11/21 01:03:39;;;;;;;1.53;0.70;;;5.80;99.90;;;8.87;55.28;96723.03;5005122;28;20426;-60
2022/11/21 01:06:11;;;;;;;1.73;1.00;;;5.80;99.90;;;8.89;55.63;96723.69;5004854;28;20046;-60
2022/11/21 01:08:42;;;;;;;3.53;1.97;;;5.80;99.90;;;8.87;56.36;96723.84;5005779;28;20084;-60
2022/11/21 01:11:15;;;;;;;1.20;0.70;;;5.80;99.90;;;8.96;55.91;96727.31;5004128;28;20056;-60
2022/11/21 01:13:44;;;;;;;2.00;0.93;;;5.90;99.90;;;9.02;55.81;96723.13;5020067;28;20050;-60
2022/11/21 01:16:16;;;;;;;2.00;0.80;;;5.90;99.90;;;9.01;56.20;96721.47;5003516;28;20240;-60
2022/11/21 01:18:45;;;;;;;1.77;0.90;;;6.00;99.90;;;9.04;56.26;96719.28;5005328;28;20424;-60
2022/11/21 01:21:18;;;;;;;2.87;1.17;;;5.90;99.90;;;8.89;57.17;96723.69;5005168;28;20264;-59
2022/11/21 01:23:47;;;;;;;2.47;1.20;;;5.90;99.90;;;8.98;56.97;96725.31;5003697;28;20241;-59
2022/11/21 01:26:23;;;;;;;3.53;1.17;;;5.90;99.90;;;9.10;56.72;96728.38;5004806;28;20039;-59
2022/11/21 01:28:52;;;;;;;2.97;1.30;;;5.90;99.90;;;8.94;57.00;96728.50;5003920;28;20054;-59
2022/11/21 01:31:27;;;;;;;1.33;0.73;;;5.90;99.90;;;8.81;57.65;96734.34;5003649;28;20058;-58
2022/11/21 01:33:58;;;;;;;2.23;0.83;;;5.80;99.90;;;8.92;57.44;96736.63;5004950;28;20054;-59
2022/11/21 01:36:32;;;;;;;2.07;1.17;;;5.80;99.90;;;8.95;57.42;96733.59;5004529;28;20056;-57
2022/11/21 01:39:03;;;;;;;;;;;5.80;99.90;;;8.96;57.43;96734.44;5003827;28;20048;-57
2022/11/21 01:41:35;;;;;;;3.97;1.00;;;5.80;99.90;;;8.87;57.57;96723.84;5019679;28;19928;-56
2022/11/21 01:44:43;;;;;;;3.33;0.70;;;5.70;99.90;;;8.72;57.74;96712.28;5003110;28;20054;-55
2022/11/21 01:47:12;;;;;;;2.10;1.10;;;5.60;99.90;;;8.69;57.97;96723.28;5002875;28;20267;-54
2022/11/21 01:49:41;;;;;;;2.30;1.43;;;5.60;99.90;;;8.71;57.93;96717.81;5004979;28;20214;-53
2022/11/21 01:52:27;;;;;;;2.20;1.73;;;5.60;99.90;;;8.73;57.90;96710.50;5003086;28;20050;-54
2022/11/21 01:55:13;;;;;;;2.17;0.70;;;5.60;99.90;;;8.81;57.79;96716.56;5004091;28;20046;-56
2022/11/21 01:57:45;;;;;;;3.90;1.00;;;5.60;99.90;;;8.91;57.81;96723.50;5003307;28;20053;-55
2022/11/21 02:00:25;;;;;;;2.23;0.90;;;5.60;99.90;;;8.76;57.80;96718.09;5003268;28;20341;-57
2022/11/21 02:03:04;;;;;;;1.13;0.60;;;5.60;99.90;;;8.77;57.76;96711.81;5003140;28;20053;-56
2022/11/21 02:05:36;;;;;;;1.13;0.60;;;5.50;99.90;;;8.56;58.15;96715.84;5003793;28;20056;-53
2022/11/21 02:08:12;;;;;;;2.73;0.80;;;5.40;99.90;;;8.48;58.24;96710.56;5003864;28;20247;-56
2022/11/21 02:11:08;;;;;;;0.83;0.50;;;5.50;99.90;;;8.70;57.68;96709.00;5002951;28;20336;-58
2022/11/21 02:13:36;;;;;;;0.80;0.53;;;5.50;99.90;;;8.66;57.45;96708.50;5000585;28;20111;-56
2022/11/21 02:16:05;;;;;;;0.73;0.60;;;5.50;99.90;;;8.78;57.43;96721.41;5003162;28;20056;-57
2022/11/21 02:18:33;;;;;;;0.90;0.60;;;5.50;99.90;;;8.80;57.60;96716.75;5018954;28;20057;-57
2022/11/21 02:21:28;;;;;;;1.43;0.60;;;5.50;99.90;;;8.79;57.36;96707.16;5002650;28;20046;-55
2022/11/21 02:24:19;;;;;;;1.07;0.50;;;5.50;99.90;;;8.70;57.81;96708.16;5002509;28;20057;-56
2022/11/21 02:26:48;;;;;;;0.77;0.47;;;5.50;99.90;;;8.75;57.57;96704.00;5002892;28;20057;-58
2022/11/21 02:29:16;;;;;;;0.77;0.50;;;5.50;99.90;;;8.64;57.70;96696.41;5001802;28;20060;-59
2022/11/21 02:31:44;;;;;;;1.37;0.40;;;5.40;99.90;;;8.56;57.29;96699.94;5003001;28;20056;-58
2022/11/21 02:34:12;;;;;;;1.03;0.40;;;5.40;99.90;;;8.52;57.54;96689.84;5003050;28;20046;-58
2022/11/21 02:36:45;;;;;;;0.40;0.30;;;5.30;99.90;;;8.58;57.00;96678.53;5004110;28;20222;-57
2022/11/21 02:39:26;;;;;;;0.47;0.40;;;5.30;99.90;;;8.63;57.15;96681.50;5003447;28;20038;-58
2022/11/21 02:42:04;;;;;;;0.73;0.57;;;5.40;99.90;;;8.59;57.06;96683.69;5004319;28;20359;-57
2022/11/21 02:44:42;;;;;;;0.60;0.50;;;5.40;99.90;;;8.43;57.55;96671.31;5003398;28;20057;-58
2022/11/21 02:47:10;;;;;;;2.27;0.53;;;5.30;99.90;;;8.43;57.27;96675.75;5003646;28;20113;-58
2022/11/21 02:49:52;;;;;;;1.93;0.40;;;5.20;99.90;;;8.45;57.77;96679.06;5003184;28;20056;-58
2022/11/21 02:52:20;;;;;;;4.23;0.60;;;5.30;99.90;;;8.45;57.14;96674.63;5002370;28;20050;-56
2022/11/21 02:54:48;;;;;;;1.33;0.53;;;5.30;99.90;;;8.42;57.05;96674.13;5001781;28;20049;-57
2022/11/21 02:57:16;;;;;;;0.93;0.60;;;5.20;99.90;;;8.43;57.12;96673.97;5003622;28;20345;-57
2022/11/21 02:59:43;;;;;;;0.93;0.50;;;5.20;99.90;;;8.39;57.08;96656.69;5001106;28;20049;-59
2022/11/21 03:02:11;;;;;;;2.07;0.70;;;5.20;99.90;;;8.30;57.38;96665.69;5002905;28;20061;-58
2022/11/21 03:04:39;;;;;;;0.87;0.43;;;5.20;99.90;;;8.33;57.41;96657.38;5002722;28;20351;-59
2022/11/21 03:07:07;;;;;;;1.37;0.50;;;5.20;99.90;;;8.28;57.09;96668.50;5003030;28;20042;-58
2022/11/21 03:10:15;;;;;;;0.60;0.50;;;5.10;99.90;;;8.25;57.08;96660.88;5002075;28;20049;-56
2022/11/21 03:12:43;;;;;;;0.30;0.30;;;5.10;99.90;;;8.22;57.05;96660.38;5020803;28;20120;-58
2022/11/21 03:15:14;;;;;;;1.73;0.57;;;5.10;99.90;;;8.02;57.60;96674.03;5053925;28;20056;-58
2022/11/21 03:17:42;;;;;;;0.30;0.30;;;5.00;99.90;;;8.07;57.45;96668.22;5022517;28;20046;-58
2022/11/21 03:20:10;;;;;;;0.30;0.30;;;5.00;99.90;;;8.10;57.47;96662.56;5038080;28;20052;-59
2022/11/21 03:22:38;;;;;;;2.10;0.50;;;5.00;99.90;;;8.12;57.53;96660.56;5022447;28;20044;-59
2022/11/21 03:25:06;;;;;;;0.40;0.40;;;5.00;99.90;;;8.07;57.30;96665.59;5022117;28;20045;-58
2022/11/21 03:27:34;;;;;;;1.13;0.50;;;5.00;99.90;;;8.19;57.37;96658.91;5022841;28;20056;-57
2022/11/21 03:30:02;;;;;;;0.70;0.70;;;5.10;99.90;;;8.26;57.36;96661.72;5022570;28;20049;-56
2022/11/21 03:32:30;;;;;;;0.60;0.40;;;5.10;99.90;;;8.26;57.44;96665.19;5022931;28;20064;-59
2022/11/21 03:34:58;;;;;;;1.63;0.43;;;5.10;99.90;;;8.34;57.57;96668.81;5022553;28;20368;-60
2022/11/21 03:37:25;;;;;;;0.80;0.50;;;5.10;99.90;;;8.44;57.63;96664.16;5022114;28;20046;-58
2022/11/21 03:39:53;;;;;;;1.50;0.60;;;5.20;99.90;;;8.40;57.58;96654.88;5053442;28;20054;-59
2022/11/21 03:42:21;;;;;;;0.40;0.40;;;5.20;99.90;;;8.47;57.51;96651.41;5053467;28;20113;-59
2022/11/21 03:44:49;;;;;;;1.60;0.50;;;5.20;99.90;;;8.51;57.48;96649.22;5021823;28;20363;-59
2022/11/21 03:47:16;;;;;;;0.57;0.40;;;5.30;99.90;;;8.54;57.35;96646.22;5020798;28;20042;-58
2022/11/21 03:49:44;;;;;;;0.77;0.60;;;5.30;99.90;;;8.60;57.63;96650.81;5022275;28;20052;-59
2022/11/21 03:52:12;;;;;;;0.57;0.40;;;5.40;99.90;;;8.64;57.25;96660.09;5022092;28;20045;-59
2022/11/21 03:54:40;;;;;;;0.60;0.50;;;5.40;99.90;;;8.67;57.69;96657.09;5021814;28;20337;-59
2022/11/21 03:57:07;;;;;;;1.80;0.57;;;5.40;99.90;;;8.78;57.29;96649.75;5022097;28;20052;-59
2022/11/21 03:59:35;;;;;;;0.67;0.50;;;5.50;99.90;;;8.82;57.31;96646.59;5021151;28;20217;-59
2022/11/21 04:02:03;;;;;;;1.10;0.40;;;5.50;99.90;;;8.91;57.09;96655.31;5053540;28;20348;-58
2022/11/21 04:04:31;;;;;;;1.60;0.43;;;5.60;99.90;;;8.92;57.03;96656.97;5022120;28;20050;-59
2022/11/21 04:06:59;;;;;;;1.13;0.70;;;5.60;99.90;;;8.92;57.30;96651.66;5022061;28;20052;-59
2022/11/21 04:09:26;;;;;;;0.70;0.50;;;5.60;99.90;;;8.96;57.13;96641.53;5021686;28;20060;-59
2022/11/21 04:11:54;;;;;;;4.10;1.57;;;5.70;99.90;;;8.95;57.45;96653.97;5053963;28;20054;-59
2022/11/21 04:14:22;;;;;;;0.60;0.60;;;5.60;99.90;;;8.97;57.69;96645.81;5021371;28;20225;-59
2022/11/21 04:16:50;;;;;;;3.10;1.50;;;5.70;99.90;;;9.03;57.42;96648.63;5022032;28;20337;-59
2022/11/21 04:19:17;;;;;;;4.00;2.33;;;5.70;99.90;;;8.92;58.07;96656.97;5020902;28;20048;-59
2022/11/21 04:21:45;;;;;;;6.00;1.40;;;5.80;99.90;;;8.94;58.14;96652.31;5053439;28;20042;-60
2022/11/21 04:24:13;;;;;;;2.77;1.10;;;5.80;99.90;;;9.03;57.90;96642.47;5036402;28;20060;-58
2022/11/21 04:26:41;;;;;;;1.10;0.87;;;5.80;99.90;;;9.12;57.72;96643.25;5021957;28;20042;-59
2022/11/21 04:29:08;;;;;;;1.70;1.30;;;5.90;99.90;;;9.15;57.76;96648.19;5021704;28;20252;-60
2022/11/21 04:31:36;;;;;;;2.30;1.00;;;6.00;99.90;;;9.19;57.61;96654.81;5053305;28;20228;-60
2022/11/21 04:34:04;;;;;;;2.63;1.00;;;6.00;99.90;;;9.11;57.98;96647.75;5021174;28;20049;-60
2022/11/21 04:36:32;;;;;;;1.60;0.60;;;6.00;99.90;;;9.14;57.85;96654.53;5053827;28;20056;-60
2022/11/21 04:39:00;;;;;;;2.47;1.00;;;6.00;99.90;;;8.80;58.77;96648.59;5022951;28;20049;-60
2022/11/21 04:41:27;;;;;;;1.70;1.10;;;5.90;99.90;;;8.79;58.81;96652.22;5021355;28;20241;-59
2022/11/21 04:43:55;;;;;;;2.20;1.33;;;5.90;99.90;;;8.83;58.69;96652.72;5021072;28;20042;-60
2022/11/21 04:46:23;;;;;;;4.33;1.37;;;5.90;99.90;;;8.63;59.62;96652.31;5021373;28;20052;-60
2022/11/21 04:48:51;;;;;;;1.77;1.17;;;5.90;99.90;;;8.54;59.77;96653.34;5019461;28;20041;-60
2022/11/21 04:51:18;;;;;;;4.67;1.70;;;5.90;99.90;;;8.67;59.83;96653.63;5023366;28;20045;-59
2022/11/21 04:53:46;;;;;;;1.83;1.30;;;5.90;99.90;;;8.62;59.91;96653.31;5024337;28;20042;-60
2022/11/21 04:56:15;;;;;;;3.17;1.87;;;5.90;99.90;;;8.62;59.75;96650.66;5025387;28;20067;-60
2022/11/21 04:58:43;;;;;;;6.67;3.57;;;5.90;99.90;;;8.34;60.88;96644.97;5025158;28;20145;-59
2022/11/21 05:01:11;;;;;;;4.33;1.10;;;5.80;99.90;;;8.57;59.92;96650.34;5056058;28;20064;-60
2022/11/21 05:03:39;;;;;;;1.90;1.23;;;5.80;99.90;;;8.57;60.11;96653.00;5024769;28;20034;-60
2022/11/21 05:06:07;;;;;;;4.00;1.23;;;5.80;99.90;;;8.57;60.17;96658.28;5024500;28;20041;-60
2022/11/21 05:08:35;;;;;;;5.20;1.80;;;5.90;99.90;;;8.73;59.62;96649.47;5024949;28;20259;-60
2022/11/21 05:13:53;;;;;;;1.73;1.37;;;5.90;99.90;;;8.62;59.82;96653.31;5024414;28;20056;-60
2022/11/21 05:16:20;;;;;;;3.90;1.83;;;5.80;99.90;;;8.64;59.63;96649.47;5056056;28;20045;-57
2022/11/21 05:18:48;;;;;;;4.07;1.27;;;5.80;99.90;;;8.80;58.58;96661.88;5024767;28;20056;-57
2022/11/21 05:21:16;;;;;;;5.07;1.60;;;5.80;99.90;;;8.67;59.67;96667.72;5056330;28;20048;-59
2022/11/21 05:23:44;;;;;;;5.37;2.27;;;5.70;99.90;;;8.48;60.08;96668.13;5024335;28;20065;-59
2022/11/21 05:26:12;;;;;;;3.10;1.40;;;5.80;99.90;;;8.73;59.60;96671.50;5056056;28;20042;-58
2022/11/21 05:28:39;;;;;;;6.33;1.80;;;5.80;99.90;;;8.82;59.03;96667.81;5056232;28;20048;-59
2022/11/21 05:31:07;;;;;;;2.73;1.33;;;5.80;99.90;;;8.84;59.20;96675.59;5024158;28;20053;-58
2022/11/21 05:33:35;;;;;;;4.00;1.60;;;5.80;99.90;;;8.95;58.84;96669.06;5022584;28;20059;-58
2022/11/21 05:36:03;;;;;;;3.80;1.27;;;5.90;99.90;;;8.97;58.82;96673.19;5024814;28;20054;-59
2022/11/21 05:38:31;;;;;;;4.67;1.43;;;5.90;99.90;;;8.69;59.40;96670.19;5024459;28;20052;-58
2022/11/21 05:40:59;;;;;;;3.13;1.83;;;5.90;99.90;;;8.85;58.92;96661.31;5024002;28;20331;-58
2022/11/21 05:43:45;;;;;;;2.50;1.30;;;5.90;99.90;;;9.00;58.76;96666.72;5024148;28;20340;-58
2022/11/21 05:46:20;;;;;;;5.83;1.40;;;5.90;99.90;;;9.02;58.44;96676.16;5039748;28;20049;-58
2022/11/21 05:48:49;;;;;;;3.80;1.90;;;6.00;99.90;;;9.16;58.12;96681.72;5055441;28;20082;-59
2022/11/21 05:51:18;;;;;;;3.20;1.93;;;6.00;99.90;;;9.18;57.97;96669.91;5055540;28;20128;-59
2022/11/21 05:53:47;;;;;;;3.17;1.57;;;6.10;99.90;;;9.20;57.72;96678.53;5023738;28;20059;-58
2022/11/21 05:56:18;;;;;;;4.57;1.30;;;6.00;99.90;;;9.22;57.65;96676.53;5024595;28;20053;-58
2022/11/21 05:58:46;;;;;;;3.30;1.50;;;6.00;99.90;;;9.11;57.39;96668.13;5055027;28;20049;-58
2022/11/21 06:01:14;;;;;;;5.10;1.50;;;5.90;99.90;;;9.09;57.38;96662.19;5055237;28;20393;-57
2022/11/21 06:03:42;;;;;;;3.87;1.40;;;5.90;99.90;;;8.93;57.64;96668.41;5054062;28;20045;-58
2022/11/21 06:06:15;;;;;;;1.63;1.17;;;5.80;99.90;;;8.97;57.61;96664.41;5023548;28;20046;-59
2022/11/21 06:08:48;;;;;;;3.93;1.53;;;5.80;99.90;;;8.80;57.67;96667.16;5053941;28;20052;-56
2022/11/21 06:11:16;;;;;;;8.00;2.57;;;5.80;99.90;;;8.55;58.16;96660.31;5023162;28;20247;-58
2022/11/21 06:13:44;;;;;;;6.03;2.07;;;5.70;99.90;;;8.51;58.42;96670.44;5055021;28;20065;-57
2022/11/21 06:16:15;;;;;;;4.37;2.20;;;5.60;99.90;;;8.42;58.63;96663.53;5023631;28;20248;-58
2022/11/21 06:18:47;;;;;;;5.63;1.50;;;5.60;99.90;;;8.53;58.45;96660.50;5054825;28;20048;-59
2022/11/21 06:21:23;;;;;;;5.90;1.77;;;5.60;99.90;;;8.67;57.81;96667.72;5054737;28;20335;-58
2022/11/21 06:23:55;;;;;;;5.83;1.80;;;5.70;99.90;;;8.48;58.87;96678.75;5037749;28;20046;-59
2022/11/21 06:26:26;;;;;;;8.27;2.40;;;5.60;99.90;;;8.61;58.71;96665.75;5023646;28;20038;-59
2022/11/21 06:28:54;;;;;;;3.40;1.37;;;5.70;99.90;;;8.54;59.11;96679.88;5023229;28;20041;-59
2022/11/21 06:31:25;;;;;;;4.13;1.57;;;5.70;99.90;;;8.63;59.03;96673.56;5023038;28;20348;-60
2022/11/21 06:33:56;;;;;;;5.17;1.90;;;5.70;99.90;;;8.64;58.73;96667.22;5054044;28;20054;-60
2022/11/21 06:36:25;;;;;;;3.53;1.57;;;5.70;99.90;;;8.53;59.04;96673.75;5054717;28;20049;-60
2022/11/21 06:38:55;;;;;;;7.33;2.63;;;5.70;99.90;;;8.67;58.57;96673.03;5024104;28;20235;-60
2022/11/21 06:41:25;;;;;;;2.93;1.43;;;5.70;99.90;;;8.59;58.68;96675.72;5054572;28;20037;-60
2022/11/21 06:43:53;;;;;;;4.27;1.67;;;5.70;99.90;;;8.65;58.57;96671.56;5022660;28;20045;-60
2022/11/21 06:46:21;;;;;;;5.03;2.03;;;5.70;99.90;;;8.77;58.31;96675.47;5023144;28;20333;-60
2022/11/21 06:48:49;;;;;;;2.80;1.70;;;5.70;99.90;;;8.90;58.25;96690.84;5022975;28;20048;-60
2022/11/21 06:51:18;;;;;;;7.77;2.20;;;5.80;99.90;;;8.86;57.92;96693.00;5022741;28;20046;-60
2022/11/21 06:54:00;;;;;;;2.53;1.60;;;5.80;99.90;;;8.90;57.82;96685.53;5053643;28;20046;-60
2022/11/21 06:56:30;;;;;;;4.20;2.33;;;5.80;99.90;;;8.87;57.78;96685.88;5021763;28;20054;-60
2022/11/21 06:58:58;;;;;;;6.83;2.40;;;5.70;99.90;;;8.86;57.68;96686.88;5020369;28;20362;-61
2022/11/21 07:01:26;;;;;;;3.60;2.00;;;5.70;99.90;;;8.87;57.49;96688.53;5022923;28;20041;-61
2022/11/21 07:03:55;;;;;;;4.57;1.63;;;5.80;99.90;;;8.85;57.48;96691.34;5020779;28;20056;-60
2022/11/21 07:06:23;;;;;;;6.43;3.17;;;5.70;99.90;;;8.87;57.26;96694.66;5021481;28;20050;-61
2022/11/21 07:08:55;;;;;;;4.53;1.83;;;5.70;99.90;;;8.85;57.46;96690.53;5022476;28;20052;-60
2022/11/21 07:11:43;;;;;;;5.43;1.70;;;5.70;99.90;;;8.92;56.95;96698.59;5021543;28;20049;-60
2022/11/21 07:14:11;;;;;;;8.07;1.67;;;5.70;99.90;;;8.91;56.87;96692.47;5021615;28;20053;-60
2022/11/21 07:16:39;;;;;;;6.37;1.87;;;5.70;99.90;;;8.72;57.35;96698.22;5022575;28;20045;-59
2022/11/21 07:19:07;;;;;;;3.30;1.67;;;5.60;99.90;;;8.74;57.18;96690.91;5021007;28;20050;-60
2022/11/21 07:21:34;;;;;;;4.23;1.40;;;5.60;99.90;;;8.54;57.54;96680.72;5022454;28;20347;-60
2022/11/21 07:24:03;;;;;;;4.97;1.93;;;5.60;99.90;;;8.71;57.24;96684.13;5021809;28;20045;-60
2022/11/21 07:26:30;;;;;;;5.37;2.00;;;5.60;99.90;;;8.47;57.68;96693.84;5021408;28;20048;-61
2022/11/21 07:28:58;;;;;;;3.90;1.70;;;5.60;99.90;;;8.57;57.32;96688.34;5020978;28;20060;-60
2022/11/21 07:31:26;;;;;;;7.03;2.67;;;5.50;99.90;;;8.41;57.54;96683.03;5022148;28;20063;-60
2022/11/21 07:33:54;;;;;;;4.63;1.83;;;5.40;99.90;;;8.51;57.33;96677.56;5020952;28;20046;-60
2022/11/21 07:36:22;;;;;;;7.53;2.07;;;5.40;99.90;;;8.48;57.72;96689.34;5022219;28;20229;-61
2022/11/21 07:38:50;;;;;;;6.23;2.23;;;5.50;99.90;;;8.41;57.41;96686.56;5021261;28;20045;-60
2022/11/21 07:41:17;;;;;;;3.40;1.60;;;5.50;99.90;;;8.42;57.53;96674.13;5021715;28;20047;-61
2022/11/21 07:43:45;;;;;;;4.73;2.07;;;5.50;99.90;;;8.42;57.63;96679.44;5021193;28;20053;-60
2022/11/21 07:46:13;;;;;;;6.13;1.80;;;5.50;99.90;;;8.48;57.24;96687.53;5021677;28;20046;-61
2022/11/21 07:48:41;;;;;;;5.43;1.67;;;5.60;99.90;;;8.40;57.40;96674.25;5019050;28;20184;-60
2022/11/21 07:51:10;;;;;;;7.13;2.13;;;5.60;99.90;;;8.54;56.98;96672.75;5036792;28;20053;-60
2022/11/21 07:53:37;;;;;;;5.63;2.20;;;5.70;99.90;;;8.59;57.01;96681.03;5020760;28;20069;-61
2022/11/21 07:56:08;;;;;;;5.07;1.90;;;5.70;99.90;;;8.51;57.03;96685.53;5022319;28;20037;-61
2022/11/21 07:58:36;;;;;;;7.70;3.80;;;5.70;99.90;;;8.65;56.78;96680.34;5020868;28;20052;-60
2022/11/21 08:01:05;;;;;;;3.37;1.70;;;5.70;99.90;;;8.78;56.68;96684.25;5021906;28;20340;-64
2022/11/21 08:03:34;;;;;;;4.00;2.03;;;5.70;99.90;;;8.85;56.27;96685.22;5019049;28;20072;-62
2022/11/21 08:06:03;;;;;;;6.80;2.73;;;5.80;99.90;;;8.94;56.29;96689.50;5020693;28;20052;-63
2022/11/21 08:08:31;;;;;;;4.33;1.50;;;5.90;99.90;;;9.01;56.09;96697.56;5020894;28;20213;-60
2022/11/21 08:11:04;;;;;;;3.67;1.67;;;6.00;99.90;;;9.09;55.90;96688.72;5020805;28;20057;-60
2022/11/21 08:13:34;;;;;;;4.15;1.42;;;6.00;99.90;;;8.82;56.23;96683.75;5020299;28;20054;-60
2022/11/21 08:16:03;;;;;;;4.80;1.90;;;6.00;99.90;;;8.80;56.45;96685.75;5022042;28;20050;-60
2022/11/21 08:18:32;;;;;;;2.50;1.30;;;5.90;99.90;;;8.47;56.96;96683.22;5021415;28;20050;-60
2022/11/21 08:21:03;;;;;;;3.27;1.67;;;5.90;99.90;;;8.63;56.60;96676.22;5021691;28;20038;-60
2022/11/21 08:23:31;;;;;;;4.63;1.80;;;5.90;99.90;;;8.71;56.69;96675.34;5020291;28;20046;-61
2022/11/21 08:25:59;;;;;;;5.43;1.77;;;5.90;99.90;;;8.76;56.04;96671.19;5022856;28;20042;-60
2022/11/21 08:28:27;;;;;;;6.07;2.40;;;6.00;99.90;;;8.91;55.71;96673.06;5024518;28;20072;-60
2022/11/21 08:30:55;;;;;;;6.20;2.40;;;6.00;99.50;;;8.97;55.98;96672.38;5024235;28;20185;-60
2022/11/21 08:33:23;;;;;;;4.90;2.37;;;6.10;99.90;;;8.76;56.36;96673.81;5025561;28;20052;-60
2022/11/21 08:35:51;;;;;;;5.20;2.27;;;6.10;99.70;;;8.67;56.35;96674.84;5023911;28;20098;-60
2022/11/21 08:38:18;;;;;;;6.43;2.60;;;6.00;98.30;;;8.80;56.10;96666.31;5024621;28;20348;-60
2022/11/21 08:42:01;;;;;;;6.17;1.90;;;6.10;99.70;;;8.95;55.95;96667.22;5024377;28;20048;-60
2022/11/21 08:43:34;;;;;;;6.17;2.13;;;6.20;98.90;;;8.64;56.25;96662.75;5024847;28;20049;-61
2022/11/21 08:46:02;;;;;;;5.43;2.63;;;6.20;97.70;;;8.77;56.14;96664.03;5025025;28;20060;-61
2022/11/21 08:48:30;;;;;;;6.43;2.27;;;6.20;97.60;;;8.96;56.08;96660.13;5025022;28;20354;-61
2022/11/21 08:50:57;;;;;;;6.33;2.23;;;6.20;99.10;;;9.10;55.77;96671.81;5024841;28;20061;-61
2022/11/21 08:53:25;;;;;;;3.30;2.33;;;6.30;99.10;;;8.81;56.12;96655.53;5025371;28;20050;-61
2022/11/21 08:55:53;;;;;;;3.67;1.73;;;6.30;98.40;;;8.92;56.18;96662.28;5023662;28;20061;-61
2022/11/21 08:58:21;;;;;;;7.20;1.67;;;6.30;98.40;;;8.48;56.69;96670.78;5024964;28;20056;-60
2022/11/21 09:00:49;;;;;;;6.83;1.90;;;6.20;96.60;;;8.63;56.21;96661.09;5024132;28;20263;-61
2022/11/21 09:03:17;;;;;;;9.27;2.20;;;6.20;96.70;;;8.81;56.06;96662.69;5023616;28;20243;-61
2022/11/21 09:05:54;;;;;;;6.03;1.83;;;6.30;97.40;;;8.61;55.79;96654.34;5024447;28;20042;-60
2022/11/21 09:08:22;;;;;;;5.60;2.40;;;6.30;95.00;;;8.90;55.87;96661.63;5024660;28;20050;-61
2022/11/21 09:10:51;;;;;;;6.63;2.17;;;6.40;95.80;;;9.03;55.78;96650.44;5023659;28;20046;-61
2022/11/21 09:13:18;;;;;;;8.40;2.00;;;6.40;97.00;;;9.17;55.31;96647.03;5025154;28;20051;-61
2022/11/21 09:18:33;;;;;;;5.47;1.70;;;6.50;95.70;;;9.19;55.49;96645.03;5025481;28;20060;-61
2022/11/21 09:21:01;;;;;;;4.30;1.30;;;6.60;97.30;;;9.07;55.46;96639.31;5023810;28;20301;-61
2022/11/21 09:23:29;;;;;;;3.63;1.17;;;6.60;95.20;;;9.09;55.40;96652.38;5023953;28;20041;-61
2022/11/21 09:25:59;;;;;;;3.30;1.63;;;6.70;93.50;;;9.32;55.39;96644.41;5025352;28;20056;-61
2022/11/21 09:28:27;;;;;;;3.10;1.33;;;6.80;94.90;;;9.64;54.85;96637.19;5023451;28;20052;-61
2022/11/21 09:30:54;;;;;;;6.67;1.80;;;6.90;95.90;;;9.75;54.99;96642.09;5013876;28;20231;-59
2022/11/21 09:33:23;;;;;;;5.07;1.93;;;7.10;92.60;;;9.98;54.53;96652.66;5015706;28;20057;-61
2022/11/21 09:35:51;;;;;;;3.80;1.37;;;7.30;93.20;;;10.02;54.00;96663.75;5019720;28;20061;-61
2022/11/21 09:38:18;;;;;;;4.67;1.80;;;7.30;91.30;;;10.09;53.55;96650.56;5024682;28;20056;-61
2022/11/21 09:40:55;;;;;;;4.27;1.30;;;7.30;92.30;;;9.92;53.83;96652.56;5022551;28;20229;-61
2022/11/21 09:43:37;;;;;;;3.80;1.23;;;7.30;92.00;;;10.15;53.38;96653.31;5022976;28;20048;-61
2022/11/21 09:46:16;;;;;;;3.90;1.20;;;7.30;92.40;;;9.91;53.10;96648.25;5024386;28;20056;-61
2022/11/21 09:49:04;;;;;;;5.27;2.57;;;7.20;89.90;;;10.14;53.38;96648.16;5023423;28;20045;-61
2022/11/21 09:51:33;;;;;;;6.77;2.17;;;7.20;91.70;;;10.33;53.24;96647.69;5023143;28;20046;-61
2022/11/21 09:54:27;;;;;;;5.23;2.60;;;7.30;93.30;;;10.35;53.23;96640.34;5005432;28;20042;-61
2022/11/21 09:56:55;;;;;;;;;;;7.30;92.80;;;10.53;53.06;96639.94;5023425;28;20055;-61
2022/11/21 09:59:36;;;;;;;4.63;1.97;;;7.40;92.30;;;10.69;52.53;96635.44;5024580;28;20020;-61
2022/11/21 10:02:20;;;;;;;2.43;1.30;;;7.50;91.00;;;10.75;52.45;96624.84;5023758;28;20045;-61
2022/11/21 10:04:50;;;;;;;3.90;2.33;;;7.60;90.60;;;10.81;52.47;96624.09;5006456;28;20056;-61
2022/11/21 10:07:27;;;;;;;5.30;2.00;;;7.70;90.70;;;10.91;51.96;96618.47;5022846;28;20358;-61
2022/11/21 10:10:55;;;;;;;4.87;1.90;;;7.80;90.30;;;10.99;52.55;96609.53;5022714;28;20046;-61
2022/11/21 10:14:06;;;;;;;4.67;1.93;;;7.90;89.70;;;11.16;52.67;96602.94;5022622;28;20057;-56
2022/11/21 10:17:07;;;;;;;4.37;2.27;;;8.10;89.00;;;11.28;51.33;96591.78;5049630;28;20050;-55
2022/11/21 10:19:53;;;;;;;5.53;2.27;;;8.10;83.40;;;11.22;51.31;96582.72;5040103;28;20333;-56
2022/11/21 10:22:48;;;;;;;4.37;1.80;;;8.10;87.00;;;11.19;51.17;96583.94;5023304;28;20052;-55
2022/11/21 10:25:26;;;;;;;2.37;1.63;;;8.00;85.90;;;11.06;50.61;96588.31;5021630;28;20235;-55
2022/11/21 10:28:57;;;;;;;3.47;1.30;;;7.90;84.90;;;10.99;51.19;96580.22;5022436;28;20060;-57
2022/11/21 10:31:30;;;;;;;2.50;2.00;;;7.90;88.20;;;10.54;52.34;96588.34;5022136;28;20060;-56
2022/11/21 10:33:59;;;;;;;5.50;1.70;;;7.40;91.10;;;10.31;52.33;96592.97;5021475;28;20048;-58
2022/11/21 10:36:35;;;;;;;2.40;1.33;;;7.10;92.80;;;10.22;52.41;96578.94;5013516;28;20038;-55
2022/11/21 10:39:32;;;;;;;2.47;1.50;;;6.80;94.10;;;10.24;52.48;96564.44;5019329;28;20046;-53
2022/11/21 10:42:18;;;;;;;7.67;2.63;;;6.80;95.80;;;10.33;52.71;96569.66;5007463;28;20064;-54
2022/11/21 10:47:37;;;;;;;4.10;2.07;;;6.90;96.60;;;10.27;53.09;96568.53;5020068;28;20539;-55
2022/11/21 10:50:08;;;;;;;6.13;1.60;;;6.80;97.80;;;10.33;52.97;96554.56;5013733;28;20042;-55
2022/11/21 10:53:00;;;;;;;4.70;1.37;;;6.90;98.30;;;10.38;53.22;96551.31;5016764;28;20055;-55
2022/11/21 10:55:28;;;;;;;4.37;1.70;;;7.00;97.90;;;10.43;53.21;96546.28;5020434;28;20056;-54
2022/11/21 10:57:55;;;;;;;6.10;2.00;;;7.00;97.80;;;10.45;52.97;96533.63;5021823;28;20056;-57
2022/11/21 11:00:26;;;;;;;8.80;3.27;;;7.00;98.60;;;10.47;53.17;96534.25;5022742;28;20046;-55